sensor_id;sensor_type;location;lat;lon;timestamp;pressure;altitude;pressure_sealevel;temperature;humidity
21824;BME280;11074;48.596;9.238;2024-02-04T00:02:03;99382.13;;;9.00;84.82
21824;BME280;11074;48.596;9.238;2024-02-04T00:04:29;99385.91;;;9.24;83.61
21824;BME280;11074;48.596;9.238;2024-02-04T00:06:57;99381.59;;;9.23;83.77
21824;BME280;11074;48.596;9.238;2024-02-04T00:09:22;99383.69;;;9.14;83.51
21824;BME280;11074;48.596;9.238;2024-02-04T00:11:48;99369.72;;;9.19;84.20
21824;BME280;11074;48.596;9.238;2024-02-04T00:14:13;99377.13;;;9.17;84.10
21824;BME280;11074;48.596;9.238;2024-02-04T00:16:38;99371.81;;;9.10;83.90
21824;BME280;11074;48.596;9.238;2024-02-04T00:19:04;99373.84;;;9.15;83.37
21824;BME280;11074;48.596;9.238;2024-02-04T00:21:29;99369.97;;;9.11;83.61
21824;BME280;11074;48.596;9.238;2024-02-04T00:23:54;99364.63;;;9.11;84.41
21824;BME280;11074;48.596;9.238;2024-02-04T00:26:19;99345.94;;;9.11;83.86
21824;BME280;11074;48.596;9.238;2024-02-04T00:28:45;99340.03;;;9.09;84.39
21824;BME280;11074;48.596;9.238;2024-02-04T00:31:10;99337.53;;;9.07;85.00
21824;BME280;11074;48.596;9.238;2024-02-04T00:33:35;99338.59;;;9.06;84.63
21824;BME280;11074;48.596;9.238;2024-02-04T00:36:01;99324.66;;;9.04;84.50
21824;BME280;11074;48.596;9.238;2024-02-04T00:38:27;99313.00;;;8.99;84.48
21824;BME280;11074;48.596;9.238;2024-02-04T00:40:52;99308.84;;;9.03;85.06
21824;BME280;11074;48.596;9.238;2024-02-04T00:43:19;99304.56;;;9.02;84.93
21824;BME280;11074;48.596;9.238;2024-02-04T00:45:44;99314.66;;;8.93;85.45
21824;BME280;11074;48.596;9.238;2024-02-04T00:48:10;99313.44;;;8.89;85.23
21824;BME280;11074;48.596;9.238;2024-02-04T00:50:35;99307.28;;;8.89;84.96
21824;BME280;11074;48.596;9.238;2024-02-04T00:53:00;99297.69;;;8.81;85.60
21824;BME280;11074;48.596;9.238;2024-02-04T00:55:25;99288.91;;;8.81;85.48
21824;BME280;11074;48.596;9.238;2024-02-04T00:57:51;99294.78;;;8.89;85.46
21824;BME280;11074;48.596;9.238;2024-02-04T01:00:16;99293.94;;;8.89;85.32
21824;BME280;11074;48.596;9.238;2024-02-04T01:02:42;99305.25;;;8.91;84.61
21824;BME280;11074;48.596;9.238;2024-02-04T01:05:07;99305.09;;;8.79;85.44
21824;BME280;11074;48.596;9.238;2024-02-04T01:07:32;99302.81;;;8.83;85.05
21824;BME280;11074;48.596;9.238;2024-02-04T01:09:58;99305.84;;;8.86;84.68
21824;BME280;11074;48.596;9.238;2024-02-04T01:12:23;99299.50;;;8.87;85.13
21824;BME280;11074;48.596;9.238;2024-02-04T01:14:48;99308.16;;;8.83;85.01
21824;BME280;11074;48.596;9.238;2024-02-04T01:17:14;99317.41;;;8.74;85.36
21824;BME280;11074;48.596;9.238;2024-02-04T01:19:39;99312.31;;;8.72;85.45
21824;BME280;11074;48.596;9.238;2024-02-04T01:22:04;99301.00;;;8.77;85.58
21824;BME280;11074;48.596;9.238;2024-02-04T01:24:31;99308.22;;;8.70;85.66
21824;BME280;11074;48.596;9.238;2024-02-04T01:26:56;99307.16;;;8.71;85.79
21824;BME280;11074;48.596;9.238;2024-02-04T01:29:21;99301.03;;;8.70;84.67
21824;BME280;11074;48.596;9.238;2024-02-04T01:31:47;99290.94;;;8.79;85.19
21824;BME280;11074;48.596;9.238;2024-02-04T01:34:12;99279.31;;;8.67;85.32
21824;BME280;11074;48.596;9.238;2024-02-04T01:36:37;99285.84;;;8.71;85.65
21824;BME280;11074;48.596;9.238;2024-02-04T01:39:03;99288.72;;;8.69;85.34
21824;BME280;11074;48.596;9.238;2024-02-04T01:41:28;99284.66;;;8.67;85.66
21824;BME280;11074;48.596;9.238;2024-02-04T01:43:54;99292.03;;;8.65;85.46
21824;BME280;11074;48.596;9.238;2024-02-04T01:46:20;99280.50;;;8.77;85.11
21824;BME280;11074;48.596;9.238;2024-02-04T01:48:45;99269.22;;;8.75;85.16
21824;BME280;11074;48.596;9.238;2024-02-04T01:51:11;99272.16;;;8.67;84.77
21824;BME280;11074;48.596;9.238;2024-02-04T01:53:41;99271.28;;;8.73;85.11
21824;BME280;11074;48.596;9.238;2024-02-04T01:56:08;99284.19;;;8.76;85.09
21824;BME280;11074;48.596;9.238;2024-02-04T01:58:34;99294.75;;;8.51;85.80
21824;BME280;11074;48.596;9.238;2024-02-04T02:00:59;99300.63;;;8.67;85.73
21824;BME280;11074;48.596;9.238;2024-02-04T02:03:26;99300.59;;;8.73;85.22
21824;BME280;11074;48.596;9.238;2024-02-04T02:05:51;99303.91;;;8.69;86.00
21824;BME280;11074;48.596;9.238;2024-02-04T02:08:17;99297.97;;;8.67;85.56
21824;BME280;11074;48.596;9.238;2024-02-04T02:10:44;99311.91;;;8.69;85.31
21824;BME280;11074;48.596;9.238;2024-02-04T02:13:18;99308.03;;;8.65;85.94
21824;BME280;11074;48.596;9.238;2024-02-04T02:15:51;99307.81;;;8.66;86.11
21824;BME280;11074;48.596;9.238;2024-02-04T02:21:13;99310.28;;;8.61;84.90
21824;BME280;11074;48.596;9.238;2024-02-04T02:23:57;99306.63;;;8.62;85.62
21824;BME280;11074;48.596;9.238;2024-02-04T02:26:28;99298.22;;;8.59;86.14
21824;BME280;11074;48.596;9.238;2024-02-04T02:28:53;99306.84;;;8.54;86.59
21824;BME280;11074;48.596;9.238;2024-02-04T02:31:18;99296.38;;;8.52;86.31
21824;BME280;11074;48.596;9.238;2024-02-04T02:33:43;99294.75;;;8.51;85.71
21824;BME280;11074;48.596;9.238;2024-02-04T02:36:13;99291.88;;;8.53;86.37
21824;BME280;11074;48.596;9.238;2024-02-04T02:39:01;99288.63;;;8.51;86.10
21824;BME280;11074;48.596;9.238;2024-02-04T02:41:31;99292.09;;;8.51;85.77
21824;BME280;11074;48.596;9.238;2024-02-04T02:44:00;99295.38;;;8.53;86.03
21824;BME280;11074;48.596;9.238;2024-02-04T02:46:26;99283.41;;;8.63;85.90
21824;BME280;11074;48.596;9.238;2024-02-04T02:48:53;99299.59;;;8.68;85.25
21824;BME280;11074;48.596;9.238;2024-02-04T02:51:18;99294.47;;;8.73;84.80
21824;BME280;11074;48.596;9.238;2024-02-04T02:53:43;99304.50;;;8.77;84.91
21824;BME280;11074;48.596;9.238;2024-02-04T02:56:08;99316.63;;;8.67;85.07
21824;BME280;11074;48.596;9.238;2024-02-04T02:58:34;99304.25;;;8.79;84.67
21824;BME280;11074;48.596;9.238;2024-02-04T03:00:59;99298.34;;;8.77;85.55
21824;BME280;11074;48.596;9.238;2024-02-04T03:03:24;99301.03;;;8.70;85.06
21824;BME280;11074;48.596;9.238;2024-02-04T03:05:49;99305.69;;;8.81;85.07
21824;BME280;11074;48.596;9.238;2024-02-04T03:08:15;99302.00;;;8.76;85.52
21824;BME280;11074;48.596;9.238;2024-02-04T03:10:40;99312.91;;;8.68;85.53
21824;BME280;11074;48.596;9.238;2024-02-04T03:13:05;99302.88;;;8.70;85.50
21824;BME280;11074;48.596;9.238;2024-02-04T03:15:31;99299.97;;;8.78;85.72
21824;BME280;11074;48.596;9.238;2024-02-04T03:17:56;99303.25;;;8.80;85.29
21824;BME280;11074;48.596;9.238;2024-02-04T03:20:21;99321.31;;;8.78;84.99
21824;BME280;11074;48.596;9.238;2024-02-04T03:22:47;99311.66;;;8.77;85.46
21824;BME280;11074;48.596;9.238;2024-02-04T03:25:13;99316.81;;;8.72;85.68
21824;BME280;11074;48.596;9.238;2024-02-04T03:27:39;99307.59;;;8.68;85.44
21824;BME280;11074;48.596;9.238;2024-02-04T03:30:05;99308.41;;;8.75;85.30
21824;BME280;11074;48.596;9.238;2024-02-04T03:32:31;99304.72;;;8.69;85.06
21824;BME280;11074;48.596;9.238;2024-02-04T03:35:00;99306.38;;;8.64;85.34
21824;BME280;11074;48.596;9.238;2024-02-04T03:37:25;99309.88;;;8.64;85.86
21824;BME280;11074;48.596;9.238;2024-02-04T03:39:50;99311.50;;;8.65;85.59
21824;BME280;11074;48.596;9.238;2024-02-04T03:42:15;99296.56;;;8.64;85.66
21824;BME280;11074;48.596;9.238;2024-02-04T03:44:43;99285.47;;;8.67;85.94
21824;BME280;11074;48.596;9.238;2024-02-04T03:47:08;99281.97;;;8.67;85.38
21824;BME280;11074;48.596;9.238;2024-02-04T03:49:33;99278.25;;;8.68;85.64
21824;BME280;11074;48.596;9.238;2024-02-04T03:51:59;99272.34;;;8.66;85.93
21824;BME280;11074;48.596;9.238;2024-02-04T03:54:24;99269.25;;;8.69;85.85
21824;BME280;11074;48.596;9.238;2024-02-04T03:56:49;99277.44;;;8.74;85.75
21824;BME280;11074;48.596;9.238;2024-02-04T03:59:14;99263.91;;;8.69;85.79
21824;BME280;11074;48.596;9.238;2024-02-04T04:01:40;99266.00;;;8.67;86.13
21824;BME280;11074;48.596;9.238;2024-02-04T04:04:05;99261.06;;;8.70;85.63
21824;BME280;11074;48.596;9.238;2024-02-04T04:06:30;99247.72;;;8.70;85.66
21824;BME280;11074;48.596;9.238;2024-02-04T04:08:56;99253.00;;;8.77;85.34
21824;BME280;11074;48.596;9.238;2024-02-04T04:11:24;99248.69;;;8.76;85.22
21824;BME280;11074;48.596;9.238;2024-02-04T04:13:49;99251.16;;;8.77;85.44
21824;BME280;11074;48.596;9.238;2024-02-04T04:16:14;99248.09;;;8.74;85.43
21824;BME280;11074;48.596;9.238;2024-02-04T04:18:39;99260.41;;;8.75;85.26
21824;BME280;11074;48.596;9.238;2024-02-04T04:21:05;99262.84;;;8.76;85.01
21824;BME280;11074;48.596;9.238;2024-02-04T04:23:30;99265.94;;;8.73;85.54
21824;BME280;11074;48.596;9.238;2024-02-04T04:25:55;99258.34;;;8.77;85.29
21824;BME280;11074;48.596;9.238;2024-02-04T04:28:20;99274.16;;;8.72;85.08
21824;BME280;11074;48.596;9.238;2024-02-04T04:30:46;99267.75;;;8.79;85.13
21824;BME280;11074;48.596;9.238;2024-02-04T04:33:11;99278.22;;;8.81;84.92
21824;BME280;11074;48.596;9.238;2024-02-04T04:35:37;99266.69;;;8.87;84.17
21824;BME280;11074;48.596;9.238;2024-02-04T04:38:02;99277.44;;;8.74;85.31
21824;BME280;11074;48.596;9.238;2024-02-04T04:40:27;99280.91;;;8.81;85.21
21824;BME280;11074;48.596;9.238;2024-02-04T04:42:53;99264.91;;;8.81;85.13
21824;BME280;11074;48.596;9.238;2024-02-04T04:45:18;99259.75;;;8.79;84.61
21824;BME280;11074;48.596;9.238;2024-02-04T04:47:43;99253.44;;;8.74;84.61
21824;BME280;11074;48.596;9.238;2024-02-04T04:50:09;99251.25;;;8.64;85.36
21824;BME280;11074;48.596;9.238;2024-02-04T04:52:34;99266.00;;;8.67;85.67
21824;BME280;11074;48.596;9.238;2024-02-04T04:55:00;99285.34;;;8.87;84.53
21824;BME280;11074;48.596;9.238;2024-02-04T04:57:25;99289.13;;;8.73;84.85
21824;BME280;11074;48.596;9.238;2024-02-04T04:59:51;99298.16;;;8.72;85.40
21824;BME280;11074;48.596;9.238;2024-02-04T05:02:16;99294.84;;;8.76;85.31
21824;BME280;11074;48.596;9.238;2024-02-04T05:04:45;99312.31;;;8.72;84.92
21824;BME280;11074;48.596;9.238;2024-02-04T05:07:11;99298.78;;;8.67;85.63
21824;BME280;11074;48.596;9.238;2024-02-04T05:09:36;99302.72;;;8.65;85.00
21824;BME280;11074;48.596;9.238;2024-02-04T05:12:02;99305.44;;;8.51;85.12
21824;BME280;11074;48.596;9.238;2024-02-04T05:14:28;99304.19;;;8.54;85.41
21824;BME280;11074;48.596;9.238;2024-02-04T05:16:53;99312.97;;;8.54;85.66
21824;BME280;11074;48.596;9.238;2024-02-04T05:19:18;99312.78;;;8.49;85.85
21824;BME280;11074;48.596;9.238;2024-02-04T05:21:43;99309.75;;;8.46;86.14
21824;BME280;11074;48.596;9.238;2024-02-04T05:24:09;99315.72;;;8.35;86.25
21824;BME280;11074;48.596;9.238;2024-02-04T05:26:34;99317.56;;;8.34;86.32
21824;BME280;11074;48.596;9.238;2024-02-04T05:28:59;99322.88;;;8.34;86.08
21824;BME280;11074;48.596;9.238;2024-02-04T05:31:24;99312.41;;;8.46;85.82
21824;BME280;11074;48.596;9.238;2024-02-04T05:33:51;99314.81;;;8.61;84.94
21824;BME280;11074;48.596;9.238;2024-02-04T05:36:17;99315.50;;;8.43;85.48
21824;BME280;11074;48.596;9.238;2024-02-04T05:38:44;99331.84;;;8.46;85.62
21824;BME280;11074;48.596;9.238;2024-02-04T05:41:09;99329.00;;;8.48;85.35
21824;BME280;11074;48.596;9.238;2024-02-04T05:43:35;99327.56;;;8.45;85.32
21824;BME280;11074;48.596;9.238;2024-02-04T05:46:00;99316.09;;;8.45;85.60
21824;BME280;11074;48.596;9.238;2024-02-04T05:48:25;99308.72;;;8.40;86.00
21824;BME280;11074;48.596;9.238;2024-02-04T05:50:53;99307.69;;;8.41;85.81
21824;BME280;11074;48.596;9.238;2024-02-04T05:53:21;99313.44;;;8.38;85.63
21824;BME280;11074;48.596;9.238;2024-02-04T05:55:46;99319.41;;;8.40;85.91
21824;BME280;11074;48.596;9.238;2024-02-04T05:58:12;99314.25;;;8.45;85.55
21824;BME280;11074;48.596;9.238;2024-02-04T06:00:39;99321.44;;;8.38;85.55
21824;BME280;11074;48.596;9.238;2024-02-04T06:03:05;99323.84;;;8.53;85.58
21824;BME280;11074;48.596;9.238;2024-02-04T06:05:30;99334.09;;;8.49;85.78
21824;BME280;11074;48.596;9.238;2024-02-04T06:07:55;99330.38;;;8.57;84.82
21824;BME280;11074;48.596;9.238;2024-02-04T06:10:21;99340.84;;;8.59;85.13
21824;BME280;11074;48.596;9.238;2024-02-04T06:12:46;99344.75;;;8.56;85.07
21824;BME280;11074;48.596;9.238;2024-02-04T06:15:15;99343.94;;;8.56;85.00
21824;BME280;11074;48.596;9.238;2024-02-04T06:17:41;99340.44;;;8.55;85.28
21824;BME280;11074;48.596;9.238;2024-02-04T06:20:06;99327.94;;;8.56;85.39
21824;BME280;11074;48.596;9.238;2024-02-04T06:22:34;99317.75;;;8.46;85.72
21824;BME280;11074;48.596;9.238;2024-02-04T06:24:59;99321.00;;;8.41;86.09
21824;BME280;11074;48.596;9.238;2024-02-04T06:27:25;99320.59;;;8.44;86.05
21824;BME280;11074;48.596;9.238;2024-02-04T06:29:50;99326.53;;;8.46;85.70
21824;BME280;11074;48.596;9.238;2024-02-04T06:32:16;99338.00;;;8.47;85.67
21824;BME280;11074;48.596;9.238;2024-02-04T06:34:44;99337.41;;;8.45;85.72
21824;BME280;11074;48.596;9.238;2024-02-04T06:37:12;99333.91;;;8.51;85.52
21824;BME280;11074;48.596;9.238;2024-02-04T06:39:38;99322.63;;;8.49;85.86
21824;BME280;11074;48.596;9.238;2024-02-04T06:42:04;99336.16;;;8.47;85.78
21824;BME280;11074;48.596;9.238;2024-02-04T06:44:29;99344.16;;;8.54;86.15
21824;BME280;11074;48.596;9.238;2024-02-04T06:46:54;99336.34;;;8.52;86.13
21824;BME280;11074;48.596;9.238;2024-02-04T06:49:20;99337.81;;;8.48;85.91
21824;BME280;11074;48.596;9.238;2024-02-04T06:51:45;99335.53;;;8.52;85.83
21824;BME280;11074;48.596;9.238;2024-02-04T06:54:12;99345.59;;;8.50;86.31
21824;BME280;11074;48.596;9.238;2024-02-04T06:56:37;99349.69;;;8.52;86.23
21824;BME280;11074;48.596;9.238;2024-02-04T06:59:02;99355.59;;;8.54;85.92
21824;BME280;11074;48.596;9.238;2024-02-04T07:01:28;99361.00;;;8.35;87.51
21824;BME280;11074;48.596;9.238;2024-02-04T07:03:53;99359.50;;;8.52;86.27
21824;BME280;11074;48.596;9.238;2024-02-04T07:06:18;99358.75;;;8.32;87.37
21824;BME280;11074;48.596;9.238;2024-02-04T07:08:44;99359.34;;;8.40;86.92
21824;BME280;11074;48.596;9.238;2024-02-04T07:11:09;99361.63;;;8.43;86.17
21824;BME280;11074;48.596;9.238;2024-02-04T07:13:34;99362.81;;;8.47;86.59
21824;BME280;11074;48.596;9.238;2024-02-04T07:15:59;99356.84;;;8.52;86.65
21824;BME280;11074;48.596;9.238;2024-02-04T07:18:25;99353.16;;;8.46;86.52
21824;BME280;11074;48.596;9.238;2024-02-04T07:20:50;99343.75;;;8.50;86.31
21824;BME280;11074;48.596;9.238;2024-02-04T07:23:15;99339.84;;;8.53;86.22
21824;BME280;11074;48.596;9.238;2024-02-04T07:25:41;99335.56;;;8.45;86.81
21824;BME280;11074;48.596;9.238;2024-02-04T07:28:06;99345.19;;;8.53;85.88
21824;BME280;11074;48.596;9.238;2024-02-04T07:30:32;99342.31;;;8.48;86.39
21824;BME280;11074;48.596;9.238;2024-02-04T07:32:57;99331.63;;;8.54;86.19
21824;BME280;11074;48.596;9.238;2024-02-04T07:35:23;99322.00;;;8.53;85.99
21824;BME280;11074;48.596;9.238;2024-02-04T07:37:48;99328.78;;;8.49;86.14
21824;BME280;11074;48.596;9.238;2024-02-04T07:40:14;99323.63;;;8.54;86.31
21824;BME280;11074;48.596;9.238;2024-02-04T07:42:39;99328.72;;;8.63;86.00
21824;BME280;11074;48.596;9.238;2024-02-04T07:45:04;99331.63;;;8.61;86.38
21824;BME280;11074;48.596;9.238;2024-02-04T07:47:34;99334.94;;;8.57;85.80
21824;BME280;11074;48.596;9.238;2024-02-04T07:49:59;99327.94;;;8.62;85.63
21824;BME280;11074;48.596;9.238;2024-02-04T07:52:25;99332.03;;;8.58;85.92
21824;BME280;11074;48.596;9.238;2024-02-04T07:54:50;99341.25;;;8.62;85.26
21824;BME280;11074;48.596;9.238;2024-02-04T07:57:15;99340.81;;;8.65;86.09
21824;BME280;11074;48.596;9.238;2024-02-04T07:59:40;99346.38;;;8.70;85.52
21824;BME280;11074;48.596;9.238;2024-02-04T08:02:06;99345.91;;;8.73;84.60
21824;BME280;11074;48.596;9.238;2024-02-04T08:04:32;99342.25;;;8.68;85.26
21824;BME280;11074;48.596;9.238;2024-02-04T08:06:57;99326.66;;;8.71;84.98
21824;BME280;11074;48.596;9.238;2024-02-04T08:09:23;99329.72;;;8.75;84.41
21824;BME280;11074;48.596;9.238;2024-02-04T08:11:48;99322.97;;;8.72;84.32
21824;BME280;11074;48.596;9.238;2024-02-04T08:14:13;99320.66;;;8.82;84.13
21824;BME280;11074;48.596;9.238;2024-02-04T08:16:39;99298.09;;;8.78;83.97
21824;BME280;11074;48.596;9.238;2024-02-04T08:19:05;99296.06;;;8.80;84.11
21824;BME280;11074;48.596;9.238;2024-02-04T08:21:31;99297.06;;;8.86;83.27
21824;BME280;11074;48.596;9.238;2024-02-04T08:23:57;99301.56;;;8.85;84.01
21824;BME280;11074;48.596;9.238;2024-02-04T08:26:23;99303.81;;;8.88;83.59
21824;BME280;11074;48.596;9.238;2024-02-04T08:28:48;99309.56;;;8.85;83.45
21824;BME280;11074;48.596;9.238;2024-02-04T08:31:14;99310.56;;;8.91;83.88
21824;BME280;11074;48.596;9.238;2024-02-04T08:33:39;99312.84;;;8.87;83.55
21824;BME280;11074;48.596;9.238;2024-02-04T08:36:05;99304.03;;;8.87;83.56
21824;BME280;11074;48.596;9.238;2024-02-04T08:38:31;99292.50;;;8.93;83.46
21824;BME280;11074;48.596;9.238;2024-02-04T08:40:57;99284.47;;;8.99;83.93
21824;BME280;11074;48.596;9.238;2024-02-04T08:43:22;99287.88;;;9.13;83.39
21824;BME280;11074;48.596;9.238;2024-02-04T08:45:47;99291.75;;;9.17;82.82
21824;BME280;11074;48.596;9.238;2024-02-04T08:48:12;99292.94;;;9.21;83.26
21824;BME280;11074;48.596;9.238;2024-02-04T08:50:38;99296.84;;;9.25;82.44
21824;BME280;11074;48.596;9.238;2024-02-04T08:53:03;99303.41;;;9.23;82.33
21824;BME280;11074;48.596;9.238;2024-02-04T08:55:28;99304.84;;;9.25;82.33
21824;BME280;11074;48.596;9.238;2024-02-04T08:57:54;99312.78;;;9.32;82.54
21824;BME280;11074;48.596;9.238;2024-02-04T09:00:19;99315.63;;;9.37;82.12
21824;BME280;11074;48.596;9.238;2024-02-04T09:02:45;99313.78;;;9.37;82.70
21824;BME280;11074;48.596;9.238;2024-02-04T09:05:12;99322.31;;;9.52;81.63
21824;BME280;11074;48.596;9.238;2024-02-04T09:07:37;99318.22;;;9.50;81.41
21824;BME280;11074;48.596;9.238;2024-02-04T09:10:04;99319.00;;;9.50;81.74
21824;BME280;11074;48.596;9.238;2024-02-04T09:12:29;99310.63;;;9.47;81.93
21824;BME280;11074;48.596;9.238;2024-02-04T09:14:55;99314.75;;;9.43;82.18
21824;BME280;11074;48.596;9.238;2024-02-04T09:17:20;99320.25;;;9.48;82.61
21824;BME280;11074;48.596;9.238;2024-02-04T09:19:46;99317.00;;;9.46;82.03
21824;BME280;11074;48.596;9.238;2024-02-04T09:22:11;99318.03;;;9.45;82.11
21824;BME280;11074;48.596;9.238;2024-02-04T09:24:36;99308.44;;;9.37;82.69
21824;BME280;11074;48.596;9.238;2024-02-04T09:27:02;99311.72;;;9.39;81.90
21824;BME280;11074;48.596;9.238;2024-02-04T09:29:27;99308.25;;;9.32;82.42
21824;BME280;11074;48.596;9.238;2024-02-04T09:31:52;99311.94;;;9.38;82.64
21824;BME280;11074;48.596;9.238;2024-02-04T09:34:19;99311.09;;;9.37;82.66
21824;BME280;11074;48.596;9.238;2024-02-04T09:36:44;99317.69;;;9.35;82.69
21824;BME280;11074;48.596;9.238;2024-02-04T09:39:10;99310.72;;;9.34;83.08
21824;BME280;11074;48.596;9.238;2024-02-04T09:41:35;99308.50;;;9.31;82.58
21824;BME280;11074;48.596;9.238;2024-02-04T09:44:02;99307.00;;;9.35;83.34
21824;BME280;11074;48.596;9.238;2024-02-04T09:46:28;99308.41;;;9.44;82.21
21824;BME280;11074;48.596;9.238;2024-02-04T09:48:55;99314.56;;;9.44;82.01
21824;BME280;11074;48.596;9.238;2024-02-04T09:51:21;99319.09;;;9.37;82.97
21824;BME280;11074;48.596;9.238;2024-02-04T09:53:51;99320.59;;;9.33;82.53
21824;BME280;11074;48.596;9.238;2024-02-04T09:56:17;99313.31;;;9.47;82.32
21824;BME280;11074;48.596;9.238;2024-02-04T09:58:43;99318.59;;;9.53;82.38
21824;BME280;11074;48.596;9.238;2024-02-04T10:01:08;99314.88;;;9.54;82.31
21824;BME280;11074;48.596;9.238;2024-02-04T10:03:34;99310.25;;;9.43;81.99
21824;BME280;11074;48.596;9.238;2024-02-04T10:05:59;99309.47;;;9.61;81.98
21824;BME280;11074;48.596;9.238;2024-02-04T10:08:25;99306.78;;;9.67;81.29
21824;BME280;11074;48.596;9.238;2024-02-04T10:10:50;99311.16;;;9.55;82.08
21824;BME280;11074;48.596;9.238;2024-02-04T10:13:15;99318.72;;;9.65;81.95
21824;BME280;11074;48.596;9.238;2024-02-04T10:15:41;99302.47;;;9.66;81.76
21824;BME280;11074;48.596;9.238;2024-02-04T10:18:07;99297.28;;;9.71;81.03
21824;BME280;11074;48.596;9.238;2024-02-04T10:20:33;99292.28;;;9.82;80.99
21824;BME280;11074;48.596;9.238;2024-02-04T10:22:58;99279.13;;;9.80;80.45
21824;BME280;11074;48.596;9.238;2024-02-04T10:25:24;99282.72;;;9.92;80.62
21824;BME280;11074;48.596;9.238;2024-02-04T10:27:49;99283.53;;;9.93;80.19
21824;BME280;11074;48.596;9.238;2024-02-04T10:30:15;99275.19;;;10.07;80.51
21824;BME280;11074;48.596;9.238;2024-02-04T10:32:44;99270.50;;;10.03;80.56
21824;BME280;11074;48.596;9.238;2024-02-04T10:35:11;99267.59;;;10.04;80.11
21824;BME280;11074;48.596;9.238;2024-02-04T10:37:36;99276.06;;;10.01;79.64
21824;BME280;11074;48.596;9.238;2024-02-04T10:40:01;99260.56;;;10.10;79.56
21824;BME280;11074;48.596;9.238;2024-02-04T10:42:28;99249.44;;;9.95;80.49
21824;BME280;11074;48.596;9.238;2024-02-04T10:44:54;99266.56;;;10.05;80.06
21824;BME280;11074;48.596;9.238;2024-02-04T10:47:24;99266.94;;;10.09;79.68
21824;BME280;11074;48.596;9.238;2024-02-04T10:49:51;99246.94;;;10.18;79.78
21824;BME280;11074;48.596;9.238;2024-02-04T10:52:18;99245.00;;;10.25;78.91
21824;BME280;11074;48.596;9.238;2024-02-04T10:54:44;99218.94;;;10.20;79.95
21824;BME280;11074;48.596;9.238;2024-02-04T10:57:12;99197.50;;;10.27;78.41
21824;BME280;11074;48.596;9.238;2024-02-04T10:59:39;99198.97;;;10.41;77.71
21824;BME280;11074;48.596;9.238;2024-02-04T11:02:09;99206.00;;;10.35;77.71
21824;BME280;11074;48.596;9.238;2024-02-04T11:04:36;99192.72;;;10.47;78.26
21824;BME280;11074;48.596;9.238;2024-02-04T11:07:03;99183.97;;;10.40;78.24
21824;BME280;11074;48.596;9.238;2024-02-04T11:09:29;99219.72;;;10.57;78.16
21824;BME280;11074;48.596;9.238;2024-02-04T11:11:59;99223.78;;;10.60;78.16
21824;BME280;11074;48.596;9.238;2024-02-04T11:14:26;99240.09;;;10.58;77.38
21824;BME280;11074;48.596;9.238;2024-02-04T11:19:32;99219.97;;;10.56;78.12
21824;BME280;11074;48.596;9.238;2024-02-04T11:22:17;99208.31;;;10.50;78.57
21824;BME280;11074;48.596;9.238;2024-02-04T11:24:55;99213.34;;;10.58;78.64
21824;BME280;11074;48.596;9.238;2024-02-04T11:27:25;99206.50;;;10.62;78.33
21824;BME280;11074;48.596;9.238;2024-02-04T11:29:51;99197.94;;;10.72;77.82
21824;BME280;11074;48.596;9.238;2024-02-04T11:32:17;99199.84;;;10.83;77.29
21824;BME280;11074;48.596;9.238;2024-02-04T11:34:44;99200.69;;;10.95;76.83
21824;BME280;11074;48.596;9.238;2024-02-04T11:37:19;99209.78;;;11.06;76.95
21824;BME280;11074;48.596;9.238;2024-02-04T11:39:51;99222.81;;;11.14;77.37
21824;BME280;11074;48.596;9.238;2024-02-04T11:42:17;99203.19;;;11.20;76.73
21824;BME280;11074;48.596;9.238;2024-02-04T11:44:44;99212.50;;;11.40;76.16
21824;BME280;11074;48.596;9.238;2024-02-04T11:47:10;99198.06;;;11.53;75.39
21824;BME280;11074;48.596;9.238;2024-02-04T11:49:35;99186.81;;;11.74;74.23
21824;BME280;11074;48.596;9.238;2024-02-04T11:52:00;99179.78;;;11.50;74.88
21824;BME280;11074;48.596;9.238;2024-02-04T11:54:26;99175.25;;;11.50;75.37
21824;BME280;11074;48.596;9.238;2024-02-04T11:56:52;99179.56;;;11.63;74.86
21824;BME280;11074;48.596;9.238;2024-02-04T11:59:21;99176.81;;;11.81;73.63
21824;BME280;11074;48.596;9.238;2024-02-04T12:01:47;99184.84;;;11.81;73.84
21824;BME280;11074;48.596;9.238;2024-02-04T12:04:15;99190.19;;;11.70;73.91
21824;BME280;11074;48.596;9.238;2024-02-04T12:06:41;99180.06;;;11.72;74.64
21824;BME280;11074;48.596;9.238;2024-02-04T12:09:08;99160.03;;;11.63;74.07
21824;BME280;11074;48.596;9.238;2024-02-04T12:11:37;99157.91;;;11.65;74.28
21824;BME280;11074;48.596;9.238;2024-02-04T12:14:04;99144.41;;;11.48;75.08
21824;BME280;11074;48.596;9.238;2024-02-04T12:16:33;99140.22;;;11.52;75.38
21824;BME280;11074;48.596;9.238;2024-02-04T12:19:02;99131.50;;;11.56;75.06
21824;BME280;11074;48.596;9.238;2024-02-04T12:21:30;99126.00;;;11.75;74.57
21824;BME280;11074;48.596;9.238;2024-02-04T12:23:57;99118.44;;;11.72;74.00
21824;BME280;11074;48.596;9.238;2024-02-04T12:26:23;99120.00;;;12.07;73.23
21824;BME280;11074;48.596;9.238;2024-02-04T12:28:48;99088.03;;;11.78;74.12
21824;BME280;11074;48.596;9.238;2024-02-04T12:31:24;99104.22;;;11.83;74.36
21824;BME280;11074;48.596;9.238;2024-02-04T12:33:56;99103.53;;;11.76;74.70
21824;BME280;11074;48.596;9.238;2024-02-04T12:36:29;99100.16;;;11.80;74.47
21824;BME280;11074;48.596;9.238;2024-02-04T12:38:58;99084.75;;;11.87;75.07
21824;BME280;11074;48.596;9.238;2024-02-04T12:41:25;99081.94;;;11.94;73.78
21824;BME280;11074;48.596;9.238;2024-02-04T12:43:55;99085.91;;;11.91;73.81
21824;BME280;11074;48.596;9.238;2024-02-04T12:46:22;99099.53;;;11.90;74.78
21824;BME280;11074;48.596;9.238;2024-02-04T12:49:06;99091.34;;;12.08;74.00
21824;BME280;11074;48.596;9.238;2024-02-04T12:51:32;99093.94;;;11.91;74.12
21824;BME280;11074;48.596;9.238;2024-02-04T12:54:03;99087.59;;;12.09;73.69
21824;BME280;11074;48.596;9.238;2024-02-04T12:56:52;99093.34;;;12.29;73.12
21824;BME280;11074;48.596;9.238;2024-02-04T13:01:59;99090.81;;;12.67;72.03
21824;BME280;11074;48.596;9.238;2024-02-04T13:04:26;99077.25;;;12.74;71.79
21824;BME280;11074;48.596;9.238;2024-02-04T13:06:52;99073.41;;;12.87;71.86
21824;BME280;11074;48.596;9.238;2024-02-04T13:09:17;99065.38;;;12.87;71.88
21824;BME280;11074;48.596;9.238;2024-02-04T13:11:43;99053.50;;;12.83;71.55
21824;BME280;11074;48.596;9.238;2024-02-04T13:14:09;99057.91;;;12.72;71.98